createdAt,value
2022-10-23T00:00:46.058Z,16.05
2022-10-23T00:03:12.991Z,12.02
2022-10-23T00:05:43.476Z,14.38
2022-10-23T00:08:10.399Z,11.77
2022-10-23T00:10:42.018Z,14.57
2022-10-23T00:13:09.220Z,15.15
2022-10-23T00:15:37.280Z,11.80
2022-10-23T00:18:04.694Z,9.23
2022-10-23T00:20:31.604Z,10.20
2022-10-23T00:22:58.561Z,15.07
2022-10-23T00:25:25.524Z,16.42
2022-10-23T00:27:52.441Z,12.82
2022-10-23T00:30:19.479Z,10.90
2022-10-23T00:32:46.469Z,18.73
2022-10-23T00:35:13.429Z,12.05
2022-10-23T00:37:40.718Z,8.30
2022-10-23T00:40:08.743Z,11.85
2022-10-23T00:42:35.680Z,14.10
2022-10-23T00:45:10.780Z,10.45
2022-10-23T00:47:38.156Z,12.35
2022-10-23T00:50:06.061Z,11.27
2022-10-23T00:52:35.175Z,7.47
2022-10-23T00:55:02.692Z,15.80
2022-10-23T00:57:29.697Z,10.32
2022-10-23T00:59:57.402Z,11.65
2022-10-23T01:02:24.433Z,13.57
2022-10-23T01:04:51.416Z,9.55
2022-10-23T01:07:56.485Z,10.45
2022-10-23T01:10:29.425Z,10.02
2022-10-23T01:12:56.311Z,9.18
2022-10-23T01:15:41.880Z,8.98
2022-10-23T01:18:27.523Z,13.18
2022-10-23T01:21:05.452Z,13.68
2022-10-23T01:24:12.268Z,13.23
2022-10-23T01:26:43.747Z,8.55
2022-10-23T01:31:51.739Z,12.40
2022-10-23T01:34:27.418Z,14.93
2022-10-23T01:36:55.695Z,14.15
2022-10-23T01:39:28.152Z,10.40
2022-10-23T01:42:02.013Z,15.02
2022-10-23T01:44:42.102Z,16.35
2022-10-23T01:47:11.835Z,7.82
2022-10-23T01:49:57.073Z,13.00
2022-10-23T01:52:24.771Z,13.32
2022-10-23T01:54:58.133Z,12.10
2022-10-23T01:57:28.080Z,13.45
2022-10-23T02:00:03.660Z,13.45
2022-10-23T02:02:32.914Z,11.43
2022-10-23T02:05:24.218Z,14.73
2022-10-23T02:07:52.049Z,11.40
2022-10-23T02:10:20.702Z,20.67
2022-10-23T02:13:01.888Z,22.27
2022-10-23T02:15:36.702Z,16.50
2022-10-23T02:18:18.192Z,12.13
2022-10-23T02:20:55.690Z,15.18
2022-10-23T02:23:37.886Z,17.42
2022-10-23T02:26:27.672Z,25.23
2022-10-23T02:31:42.312Z,13.48
2022-10-23T02:34:10.094Z,11.70
2022-10-23T02:36:37.935Z,15.57
2022-10-23T02:39:06.250Z,10.85
2022-10-23T02:42:00.304Z,11.35
2022-10-23T02:44:49.642Z,8.35
2022-10-23T02:47:55.290Z,9.48
2022-10-23T02:51:00.791Z,8.85
2022-10-23T02:53:39.663Z,14.32
2022-10-23T02:56:10.286Z,18.67
2022-10-23T02:59:14.152Z,18.90
2022-10-23T03:02:09.559Z,14.35
2022-10-23T03:04:40.384Z,15.27
2022-10-23T03:07:14.441Z,9.55
2022-10-23T03:09:42.884Z,9.50
2022-10-23T03:12:10.017Z,10.02
2022-10-23T03:14:37.612Z,16.02
2022-10-23T03:17:05.480Z,20.55
2022-10-23T03:19:32.515Z,12.75
2022-10-23T03:21:59.591Z,13.13
2022-10-23T03:24:27.182Z,20.27
2022-10-23T03:26:54.331Z,13.45
2022-10-23T03:29:29.771Z,9.15
2022-10-23T03:31:57.075Z,12.77
2022-10-23T03:34:24.213Z,7.18
2022-10-23T03:36:53.619Z,13.82
2022-10-23T03:39:21.650Z,13.38
2022-10-23T03:41:49.295Z,12.80
2022-10-23T03:44:18.175Z,12.30
2022-10-23T03:46:45.908Z,13.20
2022-10-23T03:49:13.127Z,9.27
2022-10-23T03:51:44.878Z,11.85
2022-10-23T03:54:11.871Z,12.05
2022-10-23T03:56:38.920Z,16.17
2022-10-23T03:59:08.192Z,19.02
2022-10-23T04:01:35.381Z,16.98
2022-10-23T04:04:02.524Z,18.65
2022-10-23T04:06:29.720Z,11.05
2022-10-23T04:08:58.959Z,12.20
2022-10-23T04:11:26.132Z,18.80
2022-10-23T04:13:53.165Z,9.85
2022-10-23T04:16:20.253Z,12.20
2022-10-23T04:18:47.285Z,18.38
2022-10-23T04:21:14.461Z,10.77
2022-10-23T04:23:41.803Z,12.57
2022-10-23T04:26:13.626Z,15.30
2022-10-23T04:28:40.685Z,10.15
2022-10-23T04:31:07.671Z,11.80
2022-10-23T04:33:34.665Z,17.88
2022-10-23T04:36:01.691Z,13.45
2022-10-23T04:38:28.759Z,13.27
2022-10-23T04:40:55.879Z,16.27
2022-10-23T04:43:23.818Z,12.93
2022-10-23T04:45:51.096Z,11.35
2022-10-23T04:48:18.155Z,15.00
2022-10-23T04:51:06.070Z,13.95
2022-10-23T04:53:56.171Z,13.45
2022-10-23T04:56:44.185Z,13.23
2022-10-23T04:59:19.924Z,16.60
2022-10-23T05:01:47.721Z,14.38
2022-10-23T05:04:15.816Z,18.75
2022-10-23T05:07:06.141Z,12.55
2022-10-23T05:09:43.361Z,15.75
2022-10-23T05:12:25.529Z,11.30
2022-10-23T05:14:53.002Z,16.08
2022-10-23T05:17:48.824Z,15.05
2022-10-23T05:20:21.540Z,14.65
2022-10-23T05:22:51.238Z,13.75
2022-10-23T05:25:21.155Z,12.18
2022-10-23T05:27:53.275Z,13.82
2022-10-23T05:30:21.602Z,13.07
2022-10-23T05:32:48.967Z,14.40
2022-10-23T05:35:23.173Z,15.07
2022-10-23T05:37:53.621Z,16.30
2022-10-23T05:40:23.991Z,19.65
2022-10-23T05:42:56.266Z,14.95
2022-10-23T05:45:34.653Z,11.23
2022-10-23T05:48:36.715Z,14.10
2022-10-23T05:51:12.721Z,14.02
2022-10-23T05:54:18.192Z,13.63
2022-10-23T05:57:20.565Z,19.77
2022-10-23T05:59:50.435Z,20.60
2022-10-23T06:02:26.564Z,18.30
2022-10-23T06:05:00.515Z,20.42
2022-10-23T06:07:33.557Z,18.92
2022-10-23T06:10:06.144Z,17.13
2022-10-23T06:12:36.320Z,15.93
2022-10-23T06:15:04.088Z,20.20
2022-10-23T06:17:51.115Z,17.00
2022-10-23T06:20:18.231Z,16.95
2022-10-23T06:22:52.983Z,19.50
2022-10-23T06:25:38.694Z,22.02
2022-10-23T06:28:05.812Z,19.73
2022-10-23T06:30:33.058Z,17.45
2022-10-23T06:33:03.259Z,16.40
2022-10-23T06:35:33.211Z,12.93
2022-10-23T06:38:01.501Z,13.75
2022-10-23T06:40:38.236Z,20.20
2022-10-23T06:43:08.583Z,18.35
2022-10-23T06:46:05.851Z,16.10
2022-10-23T06:48:53.867Z,24.43
2022-10-23T06:51:29.564Z,20.25
2022-10-23T06:53:57.497Z,26.08
2022-10-23T06:56:43.239Z,19.48
2022-10-23T06:59:11.479Z,12.85
2022-10-23T07:01:38.985Z,22.33
2022-10-23T07:04:06.983Z,16.02
2022-10-23T07:06:33.998Z,22.80
2022-10-23T07:09:01.537Z,28.55
2022-10-23T07:11:48.483Z,16.67
2022-10-23T07:14:15.564Z,14.18
2022-10-23T07:16:42.760Z,17.52
2022-10-23T07:19:10.678Z,14.90
2022-10-23T07:21:52.681Z,14.57
2022-10-23T07:24:28.321Z,11.38
2022-10-23T07:26:56.923Z,22.73
2022-10-23T07:29:25.151Z,11.27
2022-10-23T07:31:52.282Z,17.83
2022-10-23T07:34:37.925Z,13.98
2022-10-23T07:37:34.187Z,15.00
2022-10-23T07:40:06.254Z,10.23
2022-10-23T07:42:39.028Z,13.13
2022-10-23T07:45:07.581Z,14.68
2022-10-23T07:47:35.936Z,13.52
2022-10-23T07:50:03.854Z,14.15
2022-10-23T07:52:33.536Z,16.55
2022-10-23T07:55:10.687Z,14.00
2022-10-23T07:57:42.718Z,13.50
2022-10-23T08:00:28.068Z,9.48
2022-10-23T08:03:04.881Z,11.20
2022-10-23T08:05:33.043Z,10.55
2022-10-23T08:08:01.954Z,14.32
2022-10-23T08:10:30.498Z,8.95
2022-10-23T08:12:59.118Z,12.57
2022-10-23T08:15:47.326Z,11.90
2022-10-23T08:18:34.237Z,12.75
2022-10-23T08:21:04.177Z,17.88
2022-10-23T08:23:31.608Z,14.60
2022-10-23T08:26:00.616Z,7.88
2022-10-23T08:28:30.343Z,12.68
2022-10-23T08:30:59.835Z,11.10
2022-10-23T08:33:26.898Z,10.70
2022-10-23T08:35:53.896Z,8.55
2022-10-23T08:38:29.071Z,11.43
2022-10-23T08:40:56.242Z,9.43
2022-10-23T08:43:56.607Z,8.43
2022-10-23T08:46:47.207Z,8.88
2022-10-23T08:49:43.330Z,8.85
2022-10-23T08:52:35.264Z,9.07
2022-10-23T08:55:27.588Z,9.48
2022-10-23T08:58:20.987Z,11.18
2022-10-23T09:00:49.739Z,9.55
2022-10-23T09:03:17.881Z,8.77
2022-10-23T09:06:01.944Z,16.58
2022-10-23T09:08:34.706Z,10.15
2022-10-23T09:11:24.926Z,7.35
2022-10-23T09:14:27.874Z,9.88
2022-10-23T09:17:25.613Z,8.25
2022-10-23T09:20:18.295Z,11.35
2022-10-23T09:22:46.808Z,9.65
2022-10-23T09:25:27.051Z,11.38
2022-10-23T09:28:00.052Z,9.80
2022-10-23T09:30:40.466Z,9.98
2022-10-23T09:33:39.661Z,14.77
2022-10-23T09:36:20.319Z,9.52
2022-10-23T09:38:47.255Z,6.05
2022-10-23T09:41:19.960Z,7.65
2022-10-23T09:43:47.243Z,9.73
2022-10-23T09:46:19.878Z,9.15
2022-10-23T09:49:00.870Z,6.97
2022-10-23T09:51:30.819Z,16.52
2022-10-23T09:54:00.120Z,7.13
2022-10-23T09:56:33.148Z,7.20
2022-10-23T09:59:10.862Z,6.45
2022-10-23T10:02:20.385Z,8.63
2022-10-23T10:05:27.842Z,8.85
2022-10-23T10:07:59.669Z,7.57
2022-10-23T10:10:34.773Z,9.63
2022-10-23T10:13:18.098Z,7.25
2022-10-23T10:15:58.349Z,5.63
2022-10-23T10:18:34.487Z,4.90
2022-10-23T10:21:23.879Z,6.93
2022-10-23T10:24:12.671Z,10.95
2022-10-23T10:27:06.916Z,6.68
2022-10-23T10:29:36.566Z,6.03
2022-10-23T10:32:34.901Z,6.38
2022-10-23T10:35:22.429Z,9.75
2022-10-23T10:38:07.928Z,8.60
2022-10-23T10:40:47.020Z,7.40
2022-10-23T10:43:28.947Z,7.00
2022-10-23T10:46:11.908Z,7.57
2022-10-23T10:48:59.678Z,10.20
2022-10-23T10:52:00.807Z,7.75
2022-10-23T10:54:53.403Z,9.95
2022-10-23T10:57:41.960Z,8.65
2022-10-23T11:00:18.252Z,10.63
2022-10-23T11:02:54.997Z,13.75
2022-10-23T11:05:38.625Z,9.15
2022-10-23T11:08:31.962Z,10.27
2022-10-23T11:11:23.473Z,9.95
2022-10-23T11:13:53.229Z,10.68
2022-10-23T11:16:28.684Z,11.07
2022-10-23T11:19:01.421Z,9.13
2022-10-23T11:21:44.868Z,13.65
2022-10-23T11:27:33.144Z,9.05
2022-10-23T11:30:04.186Z,13.55
2022-10-23T11:35:40.496Z,13.20
2022-10-23T11:38:13.585Z,9.10
2022-10-23T11:43:31.838Z,12.93
2022-10-23T11:46:19.114Z,10.40
2022-10-23T11:48:47.673Z,13.48
2022-10-23T11:51:34.799Z,12.38
2022-10-23T11:54:13.696Z,14.05
2022-10-23T11:57:10.625Z,14.63
2022-10-23T11:59:54.379Z,14.98
2022-10-23T12:02:38.274Z,12.82
2022-10-23T12:05:37.851Z,12.65
2022-10-23T12:08:08.111Z,14.50
2022-10-23T12:10:36.335Z,14.43
2022-10-23T12:13:31.782Z,12.15
2022-10-23T12:16:00.943Z,12.90
2022-10-23T12:18:28.802Z,20.63
2022-10-23T12:20:58.469Z,16.00
2022-10-23T12:23:53.313Z,18.95
2022-10-23T12:26:20.211Z,16.45
2022-10-23T12:29:10.482Z,12.38
2022-10-23T12:31:54.772Z,13.18
2022-10-23T12:34:59.676Z,14.68
2022-10-23T12:37:55.163Z,14.95
2022-10-23T12:40:29.690Z,16.70
2022-10-23T12:42:59.252Z,10.15
2022-10-23T12:45:40.023Z,13.45
2022-10-23T12:48:06.968Z,12.07
2022-10-23T12:50:34.499Z,14.82
2022-10-23T12:53:04.393Z,12.10
2022-10-23T12:55:49.358Z,13.02
2022-10-23T12:58:21.468Z,14.43
2022-10-23T13:00:55.859Z,14.43
2022-10-23T13:03:24.949Z,10.85
2022-10-23T13:05:53.569Z,10.93
2022-10-23T13:08:22.868Z,12.05
2022-10-23T13:11:16.445Z,12.13
2022-10-23T13:13:43.639Z,16.35
2022-10-23T13:16:19.381Z,11.80
2022-10-23T13:18:46.806Z,11.90
2022-10-23T13:21:30.129Z,11.75
2022-10-23T13:23:57.305Z,13.02
2022-10-23T13:26:26.003Z,13.85
2022-10-23T13:28:53.035Z,15.02
2022-10-23T13:31:27.487Z,16.25
2022-10-23T13:34:00.935Z,18.77
2022-10-23T13:36:35.155Z,16.98
2022-10-23T13:39:15.374Z,13.20
2022-10-23T13:41:46.699Z,16.45
2022-10-23T13:44:16.367Z,15.00
2022-10-23T13:46:44.428Z,13.57
2022-10-23T13:49:11.466Z,11.75
2022-10-23T13:51:51.261Z,17.17
2022-10-23T13:54:21.684Z,18.20
2022-10-23T13:56:49.008Z,19.10
2022-10-23T13:59:17.067Z,13.98
2022-10-23T14:01:45.345Z,25.52
2022-10-23T14:04:12.944Z,18.00
2022-10-23T14:06:40.685Z,18.55
2022-10-23T14:09:11.789Z,14.68
2022-10-23T14:11:38.869Z,15.63
2022-10-23T14:14:05.868Z,15.43
2022-10-23T14:16:32.911Z,15.15
2022-10-23T14:18:59.960Z,22.38
2022-10-23T14:21:27.075Z,17.02
2022-10-23T14:23:54.582Z,20.55
2022-10-23T14:26:24.409Z,19.50
2022-10-23T14:28:55.703Z,13.63
2022-10-23T14:31:23.304Z,17.98
2022-10-23T14:33:56.005Z,14.35
2022-10-23T14:36:23.877Z,15.30
2022-10-23T14:38:55.839Z,17.88
2022-10-23T14:41:23.242Z,16.42
2022-10-23T14:43:50.481Z,15.77
2022-10-23T14:46:21.201Z,17.63
2022-10-23T14:48:51.037Z,18.88
2022-10-23T14:53:58.829Z,17.25
2022-10-23T14:56:26.669Z,19.25
2022-10-23T14:58:54.270Z,15.63
2022-10-23T15:01:21.539Z,20.48
2022-10-23T15:03:54.676Z,13.13
2022-10-23T15:06:21.805Z,12.93
2022-10-23T15:08:54.771Z,15.10
2022-10-23T15:11:23.185Z,17.88
2022-10-23T15:13:50.453Z,20.30
2022-10-23T15:16:17.835Z,18.15
2022-10-23T15:18:44.855Z,17.95
2022-10-23T15:21:13.956Z,14.73
2022-10-23T15:23:42.572Z,15.43
2022-10-23T15:26:20.112Z,17.83
2022-10-23T15:28:48.068Z,11.60
2022-10-23T15:31:30.311Z,15.90
2022-10-23T15:33:58.646Z,18.63
2022-10-23T15:36:26.397Z,18.42
2022-10-23T15:38:53.344Z,11.95
2022-10-23T15:41:27.935Z,17.63
2022-10-23T15:43:55.190Z,16.55
2022-10-23T15:46:22.211Z,16.10
2022-10-23T15:48:49.167Z,17.02
2022-10-23T15:51:16.354Z,14.95
2022-10-23T15:53:43.556Z,21.75
2022-10-23T15:56:10.631Z,17.10
2022-10-23T15:58:38.651Z,22.20
2022-10-23T16:01:06.870Z,14.95
2022-10-23T16:03:35.694Z,18.70
2022-10-23T16:06:11.823Z,15.35
2022-10-23T16:08:39.725Z,19.00
2022-10-23T16:11:15.611Z,16.95
2022-10-23T16:13:43.662Z,16.67
2022-10-23T16:16:11.219Z,14.73
2022-10-23T16:18:38.731Z,16.85
2022-10-23T16:21:07.193Z,17.50
2022-10-23T16:23:34.737Z,13.77
2022-10-23T16:26:05.825Z,18.63
2022-10-23T16:28:33.348Z,18.17
2022-10-23T16:31:00.657Z,27.92
2022-10-23T16:33:27.609Z,22.25
2022-10-23T16:35:54.560Z,16.90
2022-10-23T16:38:23.314Z,17.70
2022-10-23T16:40:52.069Z,16.88
2022-10-23T16:43:40.297Z,18.90
2022-10-23T16:46:35.427Z,17.17
2022-10-23T16:49:06.143Z,17.35
2022-10-23T16:51:33.428Z,23.70
2022-10-23T16:54:00.806Z,19.88
2022-10-23T16:56:28.922Z,23.63
2022-10-23T16:59:00.306Z,21.65
2022-10-23T17:01:30.536Z,23.13
2022-10-23T17:03:57.886Z,17.92
2022-10-23T17:06:27.822Z,24.15
2022-10-23T17:08:55.803Z,19.55
2022-10-23T17:11:26.165Z,22.45
2022-10-23T17:14:03.501Z,23.08
2022-10-23T17:16:44.492Z,25.33
2022-10-23T17:19:20.585Z,26.65
2022-10-23T17:21:55.770Z,20.50
2022-10-23T17:24:23.088Z,23.27
2022-10-23T17:26:50.165Z,28.08
2022-10-23T17:29:18.356Z,25.45
2022-10-23T17:31:50.192Z,25.90
2022-10-23T17:34:22.983Z,23.52
2022-10-23T17:36:52.640Z,27.15
2022-10-23T17:39:25.938Z,28.20
2022-10-23T17:41:53.392Z,30.20
2022-10-23T17:44:20.915Z,25.75
2022-10-23T17:46:53.494Z,31.52
2022-10-23T17:49:21.785Z,26.35
2022-10-23T17:51:52.199Z,19.75
2022-10-23T17:54:19.190Z,28.70
2022-10-23T17:56:46.192Z,27.42
2022-10-23T17:59:15.119Z,31.63
2022-10-23T18:01:43.934Z,33.40
2022-10-23T18:04:11.124Z,26.20
2022-10-23T18:06:44.763Z,26.13
2022-10-23T18:11:45.354Z,29.27
2022-10-23T18:14:15.036Z,26.77
2022-10-23T18:16:42.428Z,36.25
2022-10-23T18:19:10.536Z,28.55
2022-10-23T18:21:38.057Z,32.63
2022-10-23T18:24:05.346Z,27.25
2022-10-23T18:26:35.112Z,34.95
2022-10-23T18:29:07.204Z,29.73
2022-10-23T18:31:35.485Z,33.08
2022-10-23T18:34:07.784Z,37.78
2022-10-23T18:36:38.826Z,37.17
2022-10-23T18:39:08.184Z,37.15
2022-10-23T18:41:38.231Z,27.40
2022-10-23T18:44:05.555Z,24.85
2022-10-23T18:46:32.888Z,28.80
2022-10-23T18:48:59.932Z,27.48
2022-10-23T18:51:32.800Z,33.25
2022-10-23T18:54:05.859Z,35.07
2022-10-23T18:56:36.044Z,29.25
2022-10-23T18:59:06.176Z,22.88
2022-10-23T19:01:34.411Z,32.17
2022-10-23T19:04:02.330Z,32.75
2022-10-23T19:06:31.137Z,37.88
2022-10-23T19:08:58.398Z,30.30
2022-10-23T19:11:26.839Z,25.42
2022-10-23T19:13:54.090Z,25.38
2022-10-23T19:16:29.146Z,36.28
2022-10-23T19:19:07.324Z,35.15
2022-10-23T19:21:38.108Z,27.10
2022-10-23T19:24:15.464Z,24.80
2022-10-23T19:26:43.633Z,33.53
2022-10-23T19:29:15.443Z,29.25
2022-10-23T19:31:49.116Z,29.73
2022-10-23T19:34:24.842Z,26.25
2022-10-23T19:36:54.606Z,33.65
2022-10-23T19:39:22.082Z,22.65
2022-10-23T19:41:51.861Z,24.25
2022-10-23T19:44:19.686Z,31.17
2022-10-23T19:46:47.679Z,32.30
2022-10-23T19:49:14.880Z,32.70
2022-10-23T19:51:50.446Z,27.45
2022-10-23T19:54:19.435Z,32.00
2022-10-23T19:56:46.437Z,31.77
2022-10-23T19:59:16.943Z,37.10
2022-10-23T20:01:47.756Z,39.90
2022-10-23T20:04:17.908Z,29.73
2022-10-23T20:06:45.202Z,33.35
2022-10-23T20:09:12.836Z,34.50
2022-10-23T20:11:41.159Z,24.98
2022-10-23T20:14:08.873Z,29.85
2022-10-23T20:16:39.089Z,40.33
2022-10-23T20:19:10.356Z,41.67
2022-10-23T20:21:39.096Z,27.63
2022-10-23T20:24:06.602Z,32.75
2022-10-23T20:26:34.376Z,25.33
2022-10-23T20:29:01.535Z,30.23
2022-10-23T20:31:28.671Z,27.67
2022-10-23T20:33:57.091Z,38.40
2022-10-23T20:36:24.218Z,33.75
2022-10-23T20:38:51.501Z,30.63
2022-10-23T20:41:18.482Z,33.28
2022-10-23T20:43:45.860Z,24.90
2022-10-23T20:46:13.143Z,33.45
2022-10-23T20:48:42.813Z,28.13
2022-10-23T20:51:13.062Z,36.25
2022-10-23T20:53:41.387Z,35.30
2022-10-23T20:56:12.381Z,28.98
2022-10-23T20:58:39.464Z,26.40
2022-10-23T21:01:11.894Z,45.58
2022-10-23T21:03:44.917Z,26.02
2022-10-23T21:06:14.697Z,34.42
2022-10-23T21:08:42.355Z,29.45
2022-10-23T21:11:15.104Z,35.13
2022-10-23T21:13:43.584Z,27.70
2022-10-23T21:16:24.954Z,28.17
2022-10-23T21:18:56.199Z,33.85
2022-10-23T21:21:23.723Z,26.67
2022-10-23T21:23:52.802Z,32.03
2022-10-23T21:26:22.155Z,25.27
2022-10-23T21:29:01.078Z,29.15
2022-10-23T21:31:38.546Z,24.40
2022-10-23T21:34:05.888Z,31.92
2022-10-23T21:36:39.791Z,28.55
2022-10-23T21:39:10.638Z,30.02
2022-10-23T21:41:38.092Z,30.50
2022-10-23T21:44:05.951Z,24.63
2022-10-23T21:46:34.824Z,29.70
2022-10-23T21:49:02.476Z,34.42
2022-10-23T21:51:32.290Z,28.65
2022-10-23T21:53:59.457Z,33.17
2022-10-23T21:56:31.251Z,30.08
2022-10-23T21:59:00.241Z,24.42
2022-10-23T22:01:28.215Z,30.45
2022-10-23T22:03:55.660Z,32.08
2022-10-23T22:06:29.032Z,23.65
2022-10-23T22:08:57.842Z,27.55
2022-10-23T22:11:25.843Z,22.63
2022-10-23T22:13:52.919Z,26.52
2022-10-23T22:16:20.395Z,35.35
2022-10-23T22:18:48.094Z,32.72
2022-10-23T22:21:17.931Z,31.33
2022-10-23T22:23:45.514Z,29.70
2022-10-23T22:26:36.854Z,30.75
2022-10-23T22:29:06.777Z,23.67
2022-10-23T22:31:35.617Z,23.92
2022-10-23T22:34:13.319Z,22.52
2022-10-23T22:36:51.590Z,28.70
2022-10-23T22:39:18.727Z,35.60
2022-10-23T22:41:47.517Z,31.55
2022-10-23T22:44:15.237Z,28.17
2022-10-23T22:46:43.187Z,32.28
2022-10-23T22:49:10.408Z,26.08
2022-10-23T22:51:39.015Z,23.60
2022-10-23T22:54:06.084Z,30.83
2022-10-23T22:56:34.216Z,24.85
2022-10-23T22:59:01.148Z,22.70
2022-10-23T23:01:33.056Z,29.70
2022-10-23T23:04:08.792Z,34.35
2022-10-23T23:06:47.867Z,28.80
2022-10-23T23:09:17.880Z,25.00
2022-10-23T23:11:51.817Z,30.88
2022-10-23T23:14:23.296Z,24.88
2022-10-23T23:16:52.569Z,31.92
2022-10-23T23:19:19.866Z,31.25
2022-10-23T23:21:46.834Z,29.88
2022-10-23T23:24:14.007Z,30.58
2022-10-23T23:26:40.952Z,24.73
2022-10-23T23:29:08.049Z,21.98
2022-10-23T23:31:35.008Z,25.77
2022-10-23T23:34:01.953Z,27.27
2022-10-23T23:36:29.119Z,23.27
2022-10-23T23:38:57.408Z,23.80
2022-10-23T23:41:29.054Z,26.38
2022-10-23T23:43:57.793Z,31.02
2022-10-23T23:46:26.273Z,24.00
2022-10-23T23:48:53.280Z,28.00
2022-10-23T23:51:25.260Z,29.08
2022-10-23T23:53:52.704Z,31.35
2022-10-23T23:56:20.320Z,27.00
2022-10-23T23:58:47.625Z,31.73
